sensor_id;sensor_type;location;lat;lon;timestamp;P1;durP1;ratioP1;P2;durP2;ratioP2
15536;SDS011;7870;52.448;13.270;2022-07-21T00:00:14;9.18;;;5.25;;
15536;SDS011;7870;52.448;13.270;2022-07-21T00:02:41;9.68;;;5.28;;
15536;SDS011;7870;52.448;13.270;2022-07-21T00:05:08;19.48;;;6.38;;
15536;SDS011;7870;52.448;13.270;2022-07-21T00:07:34;9.43;;;4.70;;
15536;SDS011;7870;52.448;13.270;2022-07-21T00:10:01;6.38;;;4.55;;
15536;SDS011;7870;52.448;13.270;2022-07-21T00:12:27;11.10;;;4.50;;
15536;SDS011;7870;52.448;13.270;2022-07-21T00:14:53;6.75;;;5.00;;
15536;SDS011;7870;52.448;13.270;2022-07-21T00:17:20;9.73;;;4.88;;
15536;SDS011;7870;52.448;13.270;2022-07-21T00:19:46;8.20;;;5.28;;
15536;SDS011;7870;52.448;13.270;2022-07-21T00:22:13;8.50;;;4.40;;
15536;SDS011;7870;52.448;13.270;2022-07-21T00:24:39;9.18;;;4.63;;
15536;SDS011;7870;52.448;13.270;2022-07-21T00:27:06;10.13;;;4.85;;
15536;SDS011;7870;52.448;13.270;2022-07-21T00:29:32;11.20;;;5.25;;
15536;SDS011;7870;52.448;13.270;2022-07-21T00:31:58;9.20;;;4.80;;
15536;SDS011;7870;52.448;13.270;2022-07-21T00:34:26;8.88;;;5.07;;
15536;SDS011;7870;52.448;13.270;2022-07-21T00:36:53;8.15;;;5.13;;
15536;SDS011;7870;52.448;13.270;2022-07-21T00:39:19;9.10;;;4.20;;
15536;SDS011;7870;52.448;13.270;2022-07-21T00:41:45;9.75;;;5.13;;
15536;SDS011;7870;52.448;13.270;2022-07-21T00:44:19;7.85;;;4.75;;
15536;SDS011;7870;52.448;13.270;2022-07-21T00:46:45;8.73;;;5.55;;
15536;SDS011;7870;52.448;13.270;2022-07-21T00:49:12;7.90;;;4.88;;
15536;SDS011;7870;52.448;13.270;2022-07-21T00:51:38;7.22;;;4.93;;
15536;SDS011;7870;52.448;13.270;2022-07-21T00:54:37;9.23;;;5.43;;
15536;SDS011;7870;52.448;13.270;2022-07-21T00:57:04;11.82;;;4.90;;
15536;SDS011;7870;52.448;13.270;2022-07-21T00:59:31;7.93;;;4.93;;
15536;SDS011;7870;52.448;13.270;2022-07-21T01:01:57;10.68;;;4.95;;
15536;SDS011;7870;52.448;13.270;2022-07-21T01:04:24;16.50;;;5.80;;
15536;SDS011;7870;52.448;13.270;2022-07-21T01:06:55;15.93;;;5.60;;
15536;SDS011;7870;52.448;13.270;2022-07-21T01:09:23;8.02;;;4.97;;
15536;SDS011;7870;52.448;13.270;2022-07-21T01:11:49;6.85;;;4.60;;
15536;SDS011;7870;52.448;13.270;2022-07-21T01:14:16;7.05;;;4.63;;
15536;SDS011;7870;52.448;13.270;2022-07-21T01:16:42;9.95;;;5.18;;
15536;SDS011;7870;52.448;13.270;2022-07-21T01:19:09;8.85;;;4.80;;
15536;SDS011;7870;52.448;13.270;2022-07-21T01:21:37;9.00;;;4.93;;
15536;SDS011;7870;52.448;13.270;2022-07-21T01:24:05;7.07;;;5.30;;
15536;SDS011;7870;52.448;13.270;2022-07-21T01:26:39;8.50;;;5.10;;
15536;SDS011;7870;52.448;13.270;2022-07-21T01:29:05;7.30;;;4.88;;
15536;SDS011;7870;52.448;13.270;2022-07-21T01:31:32;9.20;;;5.10;;
15536;SDS011;7870;52.448;13.270;2022-07-21T01:33:58;9.80;;;5.00;;
15536;SDS011;7870;52.448;13.270;2022-07-21T01:36:25;9.10;;;5.25;;
15536;SDS011;7870;52.448;13.270;2022-07-21T01:38:51;6.68;;;5.28;;
15536;SDS011;7870;52.448;13.270;2022-07-21T01:41:36;9.90;;;4.88;;
15536;SDS011;7870;52.448;13.270;2022-07-21T01:44:04;6.72;;;5.05;;
15536;SDS011;7870;52.448;13.270;2022-07-21T01:46:33;10.10;;;4.75;;
15536;SDS011;7870;52.448;13.270;2022-07-21T01:49:00;8.35;;;4.88;;
15536;SDS011;7870;52.448;13.270;2022-07-21T01:51:27;10.02;;;4.95;;
15536;SDS011;7870;52.448;13.270;2022-07-21T01:53:53;9.02;;;4.85;;
15536;SDS011;7870;52.448;13.270;2022-07-21T01:56:21;7.20;;;4.60;;
15536;SDS011;7870;52.448;13.270;2022-07-21T01:58:48;8.52;;;5.40;;
15536;SDS011;7870;52.448;13.270;2022-07-21T02:01:16;7.10;;;4.78;;
15536;SDS011;7870;52.448;13.270;2022-07-21T02:03:43;8.05;;;4.80;;
15536;SDS011;7870;52.448;13.270;2022-07-21T02:06:09;10.30;;;5.28;;
15536;SDS011;7870;52.448;13.270;2022-07-21T02:08:36;6.82;;;4.72;;
15536;SDS011;7870;52.448;13.270;2022-07-21T02:11:03;6.97;;;4.72;;
15536;SDS011;7870;52.448;13.270;2022-07-21T02:13:29;12.60;;;5.28;;
15536;SDS011;7870;52.448;13.270;2022-07-21T02:15:56;7.85;;;4.50;;
15536;SDS011;7870;52.448;13.270;2022-07-21T02:18:22;9.65;;;5.03;;
15536;SDS011;7870;52.448;13.270;2022-07-21T02:20:49;10.52;;;4.97;;
15536;SDS011;7870;52.448;13.270;2022-07-21T02:23:17;10.85;;;5.18;;
15536;SDS011;7870;52.448;13.270;2022-07-21T02:25:44;7.53;;;5.05;;
15536;SDS011;7870;52.448;13.270;2022-07-21T02:28:10;9.77;;;5.68;;
15536;SDS011;7870;52.448;13.270;2022-07-21T02:30:37;9.80;;;5.32;;
15536;SDS011;7870;52.448;13.270;2022-07-21T02:33:04;9.82;;;5.90;;
15536;SDS011;7870;52.448;13.270;2022-07-21T02:35:31;10.98;;;5.93;;
15536;SDS011;7870;52.448;13.270;2022-07-21T02:37:57;8.55;;;5.05;;
15536;SDS011;7870;52.448;13.270;2022-07-21T02:40:24;9.27;;;5.40;;
15536;SDS011;7870;52.448;13.270;2022-07-21T02:42:51;8.73;;;5.00;;
15536;SDS011;7870;52.448;13.270;2022-07-21T02:45:17;10.05;;;5.35;;
15536;SDS011;7870;52.448;13.270;2022-07-21T02:47:49;10.10;;;5.22;;
15536;SDS011;7870;52.448;13.270;2022-07-21T02:50:16;8.73;;;5.20;;
15536;SDS011;7870;52.448;13.270;2022-07-21T02:52:43;7.80;;;4.82;;
15536;SDS011;7870;52.448;13.270;2022-07-21T02:55:11;6.63;;;5.18;;
15536;SDS011;7870;52.448;13.270;2022-07-21T02:57:37;8.63;;;4.80;;
15536;SDS011;7870;52.448;13.270;2022-07-21T03:00:05;8.32;;;4.78;;
15536;SDS011;7870;52.448;13.270;2022-07-21T03:02:32;7.97;;;4.88;;
15536;SDS011;7870;52.448;13.270;2022-07-21T03:04:59;8.00;;;5.13;;
15536;SDS011;7870;52.448;13.270;2022-07-21T03:07:25;8.23;;;4.78;;
15536;SDS011;7870;52.448;13.270;2022-07-21T03:09:52;7.05;;;4.63;;
15536;SDS011;7870;52.448;13.270;2022-07-21T03:12:18;9.10;;;4.55;;
15536;SDS011;7870;52.448;13.270;2022-07-21T03:14:45;8.20;;;4.97;;
15536;SDS011;7870;52.448;13.270;2022-07-21T03:17:11;12.00;;;4.97;;
15536;SDS011;7870;52.448;13.270;2022-07-21T03:19:38;9.75;;;5.20;;
15536;SDS011;7870;52.448;13.270;2022-07-21T03:22:04;6.97;;;4.45;;
15536;SDS011;7870;52.448;13.270;2022-07-21T03:24:31;9.35;;;4.78;;
15536;SDS011;7870;52.448;13.270;2022-07-21T03:26:57;8.63;;;4.28;;
15536;SDS011;7870;52.448;13.270;2022-07-21T03:29:30;7.13;;;5.22;;
15536;SDS011;7870;52.448;13.270;2022-07-21T03:31:56;8.10;;;4.72;;
15536;SDS011;7870;52.448;13.270;2022-07-21T03:34:23;7.10;;;4.63;;
15536;SDS011;7870;52.448;13.270;2022-07-21T03:36:50;7.65;;;5.07;;
15536;SDS011;7870;52.448;13.270;2022-07-21T03:39:16;8.00;;;4.88;;
15536;SDS011;7870;52.448;13.270;2022-07-21T03:41:42;7.10;;;4.82;;
15536;SDS011;7870;52.448;13.270;2022-07-21T03:44:09;9.82;;;5.43;;
15536;SDS011;7870;52.448;13.270;2022-07-21T03:46:35;9.18;;;5.25;;
15536;SDS011;7870;52.448;13.270;2022-07-21T03:49:01;9.88;;;4.70;;
15536;SDS011;7870;52.448;13.270;2022-07-21T03:51:28;14.15;;;5.00;;
15536;SDS011;7870;52.448;13.270;2022-07-21T03:53:54;10.32;;;5.15;;
15536;SDS011;7870;52.448;13.270;2022-07-21T03:56:21;11.90;;;5.13;;
15536;SDS011;7870;52.448;13.270;2022-07-21T03:58:47;7.07;;;5.05;;
15536;SDS011;7870;52.448;13.270;2022-07-21T04:01:14;10.90;;;4.63;;
15536;SDS011;7870;52.448;13.270;2022-07-21T04:03:41;9.13;;;5.07;;
15536;SDS011;7870;52.448;13.270;2022-07-21T04:06:07;9.13;;;4.97;;
15536;SDS011;7870;52.448;13.270;2022-07-21T04:08:37;9.93;;;4.63;;
15536;SDS011;7870;52.448;13.270;2022-07-21T04:11:04;9.85;;;4.65;;
15536;SDS011;7870;52.448;13.270;2022-07-21T04:13:30;8.98;;;5.60;;
15536;SDS011;7870;52.448;13.270;2022-07-21T04:15:57;7.78;;;5.22;;
15536;SDS011;7870;52.448;13.270;2022-07-21T04:18:26;7.15;;;4.68;;
15536;SDS011;7870;52.448;13.270;2022-07-21T04:20:53;15.90;;;6.20;;
15536;SDS011;7870;52.448;13.270;2022-07-21T04:23:19;11.40;;;4.95;;
15536;SDS011;7870;52.448;13.270;2022-07-21T04:25:46;6.40;;;4.88;;
15536;SDS011;7870;52.448;13.270;2022-07-21T04:28:12;6.82;;;4.72;;
15536;SDS011;7870;52.448;13.270;2022-07-21T04:30:39;7.47;;;4.75;;
15536;SDS011;7870;52.448;13.270;2022-07-21T04:33:06;9.63;;;4.50;;
15536;SDS011;7870;52.448;13.270;2022-07-21T04:35:32;9.75;;;4.63;;
15536;SDS011;7870;52.448;13.270;2022-07-21T04:38:05;9.35;;;5.20;;
15536;SDS011;7870;52.448;13.270;2022-07-21T04:40:31;9.77;;;5.60;;
15536;SDS011;7870;52.448;13.270;2022-07-21T04:42:58;7.72;;;5.10;;
15536;SDS011;7870;52.448;13.270;2022-07-21T04:45:24;8.85;;;6.28;;
15536;SDS011;7870;52.448;13.270;2022-07-21T04:47:52;10.93;;;6.90;;
15536;SDS011;7870;52.448;13.270;2022-07-21T04:50:20;13.50;;;8.68;;
15536;SDS011;7870;52.448;13.270;2022-07-21T04:52:47;14.15;;;9.45;;
15536;SDS011;7870;52.448;13.270;2022-07-21T04:55:13;11.43;;;10.25;;
15536;SDS011;7870;52.448;13.270;2022-07-21T04:57:41;15.55;;;11.90;;
15536;SDS011;7870;52.448;13.270;2022-07-21T05:00:09;18.77;;;13.52;;
15536;SDS011;7870;52.448;13.270;2022-07-21T05:02:35;16.40;;;12.82;;
15536;SDS011;7870;52.448;13.270;2022-07-21T05:05:02;18.95;;;13.27;;
15536;SDS011;7870;52.448;13.270;2022-07-21T05:07:29;18.30;;;13.00;;
15536;SDS011;7870;52.448;13.270;2022-07-21T05:09:56;16.85;;;13.90;;
15536;SDS011;7870;52.448;13.270;2022-07-21T05:12:23;20.80;;;14.05;;
15536;SDS011;7870;52.448;13.270;2022-07-21T05:14:49;16.83;;;13.73;;
15536;SDS011;7870;52.448;13.270;2022-07-21T05:17:16;15.10;;;13.50;;
15536;SDS011;7870;52.448;13.270;2022-07-21T05:19:42;16.20;;;14.50;;
15536;SDS011;7870;52.448;13.270;2022-07-21T05:22:11;15.73;;;14.05;;
15536;SDS011;7870;52.448;13.270;2022-07-21T05:24:38;18.63;;;14.40;;
15536;SDS011;7870;52.448;13.270;2022-07-21T05:27:07;16.75;;;14.10;;
15536;SDS011;7870;52.448;13.270;2022-07-21T05:29:34;18.27;;;14.70;;
15536;SDS011;7870;52.448;13.270;2022-07-21T05:32:00;19.73;;;14.15;;
15536;SDS011;7870;52.448;13.270;2022-07-21T05:34:27;20.42;;;14.23;;
15536;SDS011;7870;52.448;13.270;2022-07-21T05:36:53;18.98;;;13.77;;
15536;SDS011;7870;52.448;13.270;2022-07-21T05:39:19;23.33;;;14.50;;
15536;SDS011;7870;52.448;13.270;2022-07-21T05:41:46;21.20;;;14.48;;
15536;SDS011;7870;52.448;13.270;2022-07-21T05:44:12;19.10;;;15.60;;
15536;SDS011;7870;52.448;13.270;2022-07-21T05:46:39;15.73;;;14.00;;
15536;SDS011;7870;52.448;13.270;2022-07-21T05:49:05;16.33;;;14.32;;
15536;SDS011;7870;52.448;13.270;2022-07-21T05:51:32;16.35;;;14.60;;
15536;SDS011;7870;52.448;13.270;2022-07-21T05:53:58;18.27;;;13.35;;
15536;SDS011;7870;52.448;13.270;2022-07-21T05:56:24;18.05;;;14.02;;
15536;SDS011;7870;52.448;13.270;2022-07-21T05:58:51;16.27;;;13.95;;
15536;SDS011;7870;52.448;13.270;2022-07-21T06:01:18;15.70;;;14.10;;
15536;SDS011;7870;52.448;13.270;2022-07-21T06:03:46;14.75;;;13.25;;
15536;SDS011;7870;52.448;13.270;2022-07-21T06:06:15;15.02;;;13.38;;
15536;SDS011;7870;52.448;13.270;2022-07-21T06:08:43;14.50;;;12.85;;
15536;SDS011;7870;52.448;13.270;2022-07-21T06:11:10;17.23;;;13.50;;
15536;SDS011;7870;52.448;13.270;2022-07-21T06:13:37;15.13;;;13.55;;
15536;SDS011;7870;52.448;13.270;2022-07-21T06:16:04;16.73;;;13.20;;
15536;SDS011;7870;52.448;13.270;2022-07-21T06:18:30;15.35;;;12.95;;
15536;SDS011;7870;52.448;13.270;2022-07-21T06:20:56;14.65;;;12.50;;
15536;SDS011;7870;52.448;13.270;2022-07-21T06:23:23;15.15;;;13.07;;
15536;SDS011;7870;52.448;13.270;2022-07-21T06:25:50;14.50;;;12.65;;
15536;SDS011;7870;52.448;13.270;2022-07-21T06:28:16;14.52;;;13.02;;
15536;SDS011;7870;52.448;13.270;2022-07-21T06:30:43;14.55;;;12.40;;
15536;SDS011;7870;52.448;13.270;2022-07-21T06:33:10;14.93;;;12.85;;
15536;SDS011;7870;52.448;13.270;2022-07-21T06:35:36;14.48;;;12.57;;
15536;SDS011;7870;52.448;13.270;2022-07-21T06:38:03;15.15;;;11.93;;
15536;SDS011;7870;52.448;13.270;2022-07-21T06:40:37;17.10;;;12.35;;
15536;SDS011;7870;52.448;13.270;2022-07-21T06:43:04;17.10;;;12.23;;
15536;SDS011;7870;52.448;13.270;2022-07-21T06:45:50;14.95;;;11.85;;
15536;SDS011;7870;52.448;13.270;2022-07-21T06:48:17;12.75;;;11.32;;
15536;SDS011;7870;52.448;13.270;2022-07-21T06:50:43;14.68;;;10.85;;
15536;SDS011;7870;52.448;13.270;2022-07-21T06:53:11;13.45;;;10.90;;
15536;SDS011;7870;52.448;13.270;2022-07-21T06:55:37;16.73;;;11.40;;
15536;SDS011;7870;52.448;13.270;2022-07-21T06:58:11;13.95;;;10.82;;
15536;SDS011;7870;52.448;13.270;2022-07-21T07:00:38;12.77;;;11.07;;
15536;SDS011;7870;52.448;13.270;2022-07-21T07:03:05;16.35;;;11.15;;
15536;SDS011;7870;52.448;13.270;2022-07-21T07:05:32;15.52;;;11.13;;
15536;SDS011;7870;52.448;13.270;2022-07-21T07:07:58;16.02;;;10.50;;
15536;SDS011;7870;52.448;13.270;2022-07-21T07:10:25;13.15;;;10.45;;
15536;SDS011;7870;52.448;13.270;2022-07-21T07:12:51;15.15;;;10.23;;
15536;SDS011;7870;52.448;13.270;2022-07-21T07:15:37;13.07;;;10.30;;
15536;SDS011;7870;52.448;13.270;2022-07-21T07:18:04;13.60;;;9.98;;
15536;SDS011;7870;52.448;13.270;2022-07-21T07:20:30;14.73;;;10.88;;
15536;SDS011;7870;52.448;13.270;2022-07-21T07:22:57;13.70;;;10.30;;
15536;SDS011;7870;52.448;13.270;2022-07-21T07:25:24;12.07;;;9.88;;
15536;SDS011;7870;52.448;13.270;2022-07-21T07:27:57;12.27;;;9.80;;
15536;SDS011;7870;52.448;13.270;2022-07-21T07:30:23;13.15;;;10.27;;
15536;SDS011;7870;52.448;13.270;2022-07-21T07:32:50;10.75;;;9.65;;
15536;SDS011;7870;52.448;13.270;2022-07-21T07:35:16;15.32;;;9.57;;
15536;SDS011;7870;52.448;13.270;2022-07-21T07:37:43;15.00;;;10.63;;
15536;SDS011;7870;52.448;13.270;2022-07-21T07:40:11;13.30;;;10.07;;
15536;SDS011;7870;52.448;13.270;2022-07-21T07:42:38;12.85;;;9.27;;
15536;SDS011;7870;52.448;13.270;2022-07-21T07:45:05;13.55;;;9.65;;
15536;SDS011;7870;52.448;13.270;2022-07-21T07:47:32;12.63;;;9.40;;
15536;SDS011;7870;52.448;13.270;2022-07-21T07:49:58;14.30;;;9.90;;
15536;SDS011;7870;52.448;13.270;2022-07-21T07:52:25;14.27;;;9.30;;
15536;SDS011;7870;52.448;13.270;2022-07-21T07:54:51;15.35;;;9.65;;
15536;SDS011;7870;52.448;13.270;2022-07-21T07:57:18;11.35;;;9.10;;
15536;SDS011;7870;52.448;13.270;2022-07-21T07:59:44;12.93;;;10.23;;
15536;SDS011;7870;52.448;13.270;2022-07-21T08:02:10;12.68;;;9.68;;
15536;SDS011;7870;52.448;13.270;2022-07-21T08:04:37;15.18;;;9.88;;
15536;SDS011;7870;52.448;13.270;2022-07-21T08:07:03;12.50;;;9.52;;
15536;SDS011;7870;52.448;13.270;2022-07-21T08:09:32;10.98;;;8.93;;
15536;SDS011;7870;52.448;13.270;2022-07-21T08:11:59;12.90;;;9.38;;
15536;SDS011;7870;52.448;13.270;2022-07-21T08:14:25;11.20;;;9.40;;
15536;SDS011;7870;52.448;13.270;2022-07-21T08:16:51;15.25;;;9.30;;
15536;SDS011;7870;52.448;13.270;2022-07-21T08:19:26;10.80;;;9.30;;
15536;SDS011;7870;52.448;13.270;2022-07-21T08:21:52;13.07;;;9.55;;
15536;SDS011;7870;52.448;13.270;2022-07-21T08:24:37;12.75;;;9.15;;
15536;SDS011;7870;52.448;13.270;2022-07-21T08:27:04;11.55;;;8.77;;
15536;SDS011;7870;52.448;13.270;2022-07-21T08:29:30;10.82;;;9.32;;
15536;SDS011;7870;52.448;13.270;2022-07-21T08:31:57;12.82;;;8.75;;
15536;SDS011;7870;52.448;13.270;2022-07-21T08:34:23;11.60;;;8.27;;
15536;SDS011;7870;52.448;13.270;2022-07-21T08:36:50;11.30;;;8.45;;
15536;SDS011;7870;52.448;13.270;2022-07-21T08:39:16;9.25;;;8.10;;
15536;SDS011;7870;52.448;13.270;2022-07-21T08:41:43;14.13;;;8.02;;
15536;SDS011;7870;52.448;13.270;2022-07-21T08:44:16;10.32;;;7.97;;
15536;SDS011;7870;52.448;13.270;2022-07-21T08:46:42;11.93;;;8.57;;
15536;SDS011;7870;52.448;13.270;2022-07-21T08:49:09;14.32;;;9.00;;
15536;SDS011;7870;52.448;13.270;2022-07-21T08:51:36;9.73;;;7.95;;
15536;SDS011;7870;52.448;13.270;2022-07-21T08:54:03;9.73;;;7.90;;
15536;SDS011;7870;52.448;13.270;2022-07-21T08:56:29;9.85;;;8.27;;
15536;SDS011;7870;52.448;13.270;2022-07-21T08:58:55;11.05;;;8.30;;
15536;SDS011;7870;52.448;13.270;2022-07-21T09:01:22;13.13;;;7.40;;
15536;SDS011;7870;52.448;13.270;2022-07-21T09:03:51;12.02;;;7.80;;
15536;SDS011;7870;52.448;13.270;2022-07-21T09:06:17;12.38;;;8.75;;
15536;SDS011;7870;52.448;13.270;2022-07-21T09:08:45;11.45;;;7.80;;
15536;SDS011;7870;52.448;13.270;2022-07-21T09:11:16;10.70;;;8.18;;
15536;SDS011;7870;52.448;13.270;2022-07-21T09:13:44;11.75;;;7.90;;
15536;SDS011;7870;52.448;13.270;2022-07-21T09:16:10;8.43;;;7.13;;
15536;SDS011;7870;52.448;13.270;2022-07-21T09:18:46;9.57;;;6.65;;
15536;SDS011;7870;52.448;13.270;2022-07-21T09:21:13;8.93;;;6.18;;
15536;SDS011;7870;52.448;13.270;2022-07-21T09:23:41;9.75;;;6.75;;
15536;SDS011;7870;52.448;13.270;2022-07-21T09:26:07;11.30;;;7.35;;
15536;SDS011;7870;52.448;13.270;2022-07-21T09:28:34;7.00;;;6.35;;
15536;SDS011;7870;52.448;13.270;2022-07-21T09:31:02;9.68;;;5.95;;
15536;SDS011;7870;52.448;13.270;2022-07-21T09:33:30;8.73;;;6.38;;
15536;SDS011;7870;52.448;13.270;2022-07-21T09:35:59;8.85;;;6.10;;
15536;SDS011;7870;52.448;13.270;2022-07-21T09:38:26;7.78;;;6.38;;
15536;SDS011;7870;52.448;13.270;2022-07-21T09:40:53;8.70;;;6.00;;
15536;SDS011;7870;52.448;13.270;2022-07-21T09:43:29;6.38;;;5.07;;
15536;SDS011;7870;52.448;13.270;2022-07-21T09:45:59;9.15;;;5.18;;
15536;SDS011;7870;52.448;13.270;2022-07-21T09:48:35;9.48;;;5.22;;
15536;SDS011;7870;52.448;13.270;2022-07-21T09:53:57;7.20;;;4.72;;
15536;SDS011;7870;52.448;13.270;2022-07-21T09:56:26;6.72;;;4.93;;
15536;SDS011;7870;52.448;13.270;2022-07-21T09:58:54;7.30;;;4.25;;
15536;SDS011;7870;52.448;13.270;2022-07-21T10:01:21;9.13;;;4.38;;
15536;SDS011;7870;52.448;13.270;2022-07-21T10:03:48;7.75;;;5.13;;
15536;SDS011;7870;52.448;13.270;2022-07-21T10:06:16;6.57;;;4.78;;
15536;SDS011;7870;52.448;13.270;2022-07-21T10:08:43;10.27;;;5.13;;
15536;SDS011;7870;52.448;13.270;2022-07-21T10:11:10;8.43;;;5.07;;
15536;SDS011;7870;52.448;13.270;2022-07-21T10:13:43;7.22;;;5.13;;
15536;SDS011;7870;52.448;13.270;2022-07-21T10:16:10;8.40;;;5.47;;
15536;SDS011;7870;52.448;13.270;2022-07-21T10:18:51;8.32;;;5.20;;
15536;SDS011;7870;52.448;13.270;2022-07-21T10:24:04;10.30;;;4.65;;
15536;SDS011;7870;52.448;13.270;2022-07-21T10:26:31;6.13;;;4.88;;
15536;SDS011;7870;52.448;13.270;2022-07-21T10:28:57;8.98;;;4.63;;
15536;SDS011;7870;52.448;13.270;2022-07-21T10:31:24;7.45;;;4.43;;
15536;SDS011;7870;52.448;13.270;2022-07-21T10:33:57;8.20;;;4.55;;
15536;SDS011;7870;52.448;13.270;2022-07-21T10:41:36;9.20;;;4.18;;
15536;SDS011;7870;52.448;13.270;2022-07-21T10:44:03;11.80;;;5.07;;
15536;SDS011;7870;52.448;13.270;2022-07-21T10:47:09;6.38;;;4.43;;
15536;SDS011;7870;52.448;13.270;2022-07-21T10:55:12;5.63;;;4.25;;
15536;SDS011;7870;52.448;13.270;2022-07-21T10:57:46;5.05;;;3.78;;
15536;SDS011;7870;52.448;13.270;2022-07-21T11:02:48;9.60;;;4.00;;
15536;SDS011;7870;52.448;13.270;2022-07-21T11:05:15;7.22;;;3.88;;
15536;SDS011;7870;52.448;13.270;2022-07-21T11:10:27;8.95;;;4.22;;
15536;SDS011;7870;52.448;13.270;2022-07-21T11:12:57;8.80;;;4.07;;
15536;SDS011;7870;52.448;13.270;2022-07-21T11:15:42;8.23;;;4.38;;
15536;SDS011;7870;52.448;13.270;2022-07-21T11:18:09;10.85;;;4.47;;
15536;SDS011;7870;52.448;13.270;2022-07-21T11:20:35;7.00;;;4.63;;
15536;SDS011;7870;52.448;13.270;2022-07-21T11:23:01;9.95;;;4.93;;
15536;SDS011;7870;52.448;13.270;2022-07-21T11:25:33;6.85;;;4.40;;
15536;SDS011;7870;52.448;13.270;2022-07-21T11:28:00;7.75;;;4.80;;
15536;SDS011;7870;52.448;13.270;2022-07-21T11:30:26;7.28;;;4.50;;
15536;SDS011;7870;52.448;13.270;2022-07-21T11:32:53;6.10;;;4.38;;
15536;SDS011;7870;52.448;13.270;2022-07-21T11:35:19;6.80;;;4.55;;
15536;SDS011;7870;52.448;13.270;2022-07-21T11:37:46;7.75;;;4.10;;
15536;SDS011;7870;52.448;13.270;2022-07-21T11:40:16;6.05;;;4.25;;
15536;SDS011;7870;52.448;13.270;2022-07-21T11:42:44;7.75;;;4.25;;
15536;SDS011;7870;52.448;13.270;2022-07-21T11:45:11;8.60;;;4.57;;
15536;SDS011;7870;52.448;13.270;2022-07-21T11:47:38;8.60;;;4.80;;
15536;SDS011;7870;52.448;13.270;2022-07-21T11:50:06;5.75;;;4.38;;
15536;SDS011;7870;52.448;13.270;2022-07-21T11:52:34;8.00;;;4.78;;
15536;SDS011;7870;52.448;13.270;2022-07-21T11:55:03;7.93;;;4.50;;
15536;SDS011;7870;52.448;13.270;2022-07-21T11:57:30;12.05;;;4.63;;
15536;SDS011;7870;52.448;13.270;2022-07-21T11:59:58;6.20;;;4.40;;
15536;SDS011;7870;52.448;13.270;2022-07-21T12:02:28;8.70;;;4.68;;
15536;SDS011;7870;52.448;13.270;2022-07-21T12:04:57;11.15;;;5.20;;
15536;SDS011;7870;52.448;13.270;2022-07-21T12:07:31;8.02;;;4.72;;
15536;SDS011;7870;52.448;13.270;2022-07-21T12:09:59;10.00;;;4.55;;
15536;SDS011;7870;52.448;13.270;2022-07-21T12:15:14;9.88;;;4.72;;
15536;SDS011;7870;52.448;13.270;2022-07-21T12:17:43;8.93;;;4.93;;
15536;SDS011;7870;52.448;13.270;2022-07-21T12:20:10;10.50;;;5.10;;
15536;SDS011;7870;52.448;13.270;2022-07-21T12:22:41;8.25;;;5.80;;
15536;SDS011;7870;52.448;13.270;2022-07-21T12:25:13;10.40;;;5.47;;
15536;SDS011;7870;52.448;13.270;2022-07-21T12:27:40;8.68;;;5.53;;
15536;SDS011;7870;52.448;13.270;2022-07-21T12:30:07;10.55;;;5.85;;
15536;SDS011;7870;52.448;13.270;2022-07-21T12:32:47;7.47;;;5.18;;
15536;SDS011;7870;52.448;13.270;2022-07-21T12:35:18;7.40;;;5.22;;
15536;SDS011;7870;52.448;13.270;2022-07-21T12:40:27;7.32;;;5.57;;
15536;SDS011;7870;52.448;13.270;2022-07-21T12:43:05;10.32;;;6.18;;
15536;SDS011;7870;52.448;13.270;2022-07-21T12:45:32;11.90;;;6.38;;
15536;SDS011;7870;52.448;13.270;2022-07-21T12:48:10;9.15;;;5.90;;
15536;SDS011;7870;52.448;13.270;2022-07-21T12:50:37;8.55;;;6.20;;
15536;SDS011;7870;52.448;13.270;2022-07-21T12:53:05;6.85;;;5.35;;
15536;SDS011;7870;52.448;13.270;2022-07-21T12:55:33;6.68;;;4.88;;
15536;SDS011;7870;52.448;13.270;2022-07-21T12:58:00;6.32;;;4.85;;
15536;SDS011;7870;52.448;13.270;2022-07-21T13:00:28;9.23;;;5.53;;
15536;SDS011;7870;52.448;13.270;2022-07-21T13:02:55;9.52;;;5.85;;
15536;SDS011;7870;52.448;13.270;2022-07-21T13:05:22;7.45;;;5.07;;
15536;SDS011;7870;52.448;13.270;2022-07-21T13:07:49;6.95;;;5.50;;
15536;SDS011;7870;52.448;13.270;2022-07-21T13:10:15;7.57;;;5.10;;
15536;SDS011;7870;52.448;13.270;2022-07-21T13:12:42;5.97;;;5.22;;
15536;SDS011;7870;52.448;13.270;2022-07-21T13:15:09;6.80;;;5.22;;
15536;SDS011;7870;52.448;13.270;2022-07-21T13:17:36;7.20;;;5.50;;
15536;SDS011;7870;52.448;13.270;2022-07-21T13:20:03;8.25;;;5.20;;
15536;SDS011;7870;52.448;13.270;2022-07-21T13:22:33;7.90;;;5.50;;
15536;SDS011;7870;52.448;13.270;2022-07-21T13:24:59;6.00;;;5.40;;
15536;SDS011;7870;52.448;13.270;2022-07-21T13:27:25;7.18;;;5.40;;
15536;SDS011;7870;52.448;13.270;2022-07-21T13:29:52;8.02;;;5.90;;
15536;SDS011;7870;52.448;13.270;2022-07-21T13:32:18;8.20;;;5.60;;
15536;SDS011;7870;52.448;13.270;2022-07-21T13:34:44;7.22;;;5.45;;
15536;SDS011;7870;52.448;13.270;2022-07-21T13:37:31;9.13;;;6.15;;
15536;SDS011;7870;52.448;13.270;2022-07-21T13:39:57;7.22;;;5.13;;
15536;SDS011;7870;52.448;13.270;2022-07-21T13:42:44;7.00;;;5.70;;
15536;SDS011;7870;52.448;13.270;2022-07-21T13:45:30;8.90;;;5.78;;
15536;SDS011;7870;52.448;13.270;2022-07-21T13:47:56;7.60;;;5.72;;
15536;SDS011;7870;52.448;13.270;2022-07-21T13:50:23;7.28;;;5.47;;
15536;SDS011;7870;52.448;13.270;2022-07-21T13:52:49;6.93;;;5.97;;
15536;SDS011;7870;52.448;13.270;2022-07-21T13:55:16;10.38;;;6.13;;
15536;SDS011;7870;52.448;13.270;2022-07-21T13:57:42;6.40;;;5.47;;
15536;SDS011;7870;52.448;13.270;2022-07-21T14:00:11;7.90;;;5.68;;
15536;SDS011;7870;52.448;13.270;2022-07-21T14:02:37;7.03;;;5.63;;
15536;SDS011;7870;52.448;13.270;2022-07-21T14:05:04;9.15;;;5.28;;
15536;SDS011;7870;52.448;13.270;2022-07-21T14:07:31;8.52;;;5.10;;
15536;SDS011;7870;52.448;13.270;2022-07-21T14:09:57;5.45;;;4.85;;
15536;SDS011;7870;52.448;13.270;2022-07-21T14:12:24;6.05;;;4.45;;
15536;SDS011;7870;52.448;13.270;2022-07-21T14:14:50;5.68;;;4.75;;
15536;SDS011;7870;52.448;13.270;2022-07-21T14:17:17;7.93;;;5.00;;
15536;SDS011;7870;52.448;13.270;2022-07-21T14:19:44;5.80;;;4.68;;
15536;SDS011;7870;52.448;13.270;2022-07-21T14:22:11;5.55;;;4.88;;
15536;SDS011;7870;52.448;13.270;2022-07-21T14:24:37;8.15;;;5.03;;
15536;SDS011;7870;52.448;13.270;2022-07-21T14:27:22;5.32;;;4.53;;
15536;SDS011;7870;52.448;13.270;2022-07-21T14:29:49;5.93;;;4.45;;
15536;SDS011;7870;52.448;13.270;2022-07-21T14:32:18;6.35;;;4.60;;
15536;SDS011;7870;52.448;13.270;2022-07-21T14:34:49;6.05;;;5.00;;
15536;SDS011;7870;52.448;13.270;2022-07-21T14:37:15;5.65;;;4.32;;
15536;SDS011;7870;52.448;13.270;2022-07-21T14:39:42;5.65;;;4.53;;
15536;SDS011;7870;52.448;13.270;2022-07-21T14:42:08;5.47;;;4.70;;
15536;SDS011;7870;52.448;13.270;2022-07-21T14:44:35;4.80;;;4.20;;
15536;SDS011;7870;52.448;13.270;2022-07-21T14:47:01;6.80;;;4.50;;
15536;SDS011;7870;52.448;13.270;2022-07-21T14:49:28;5.93;;;4.57;;
15536;SDS011;7870;52.448;13.270;2022-07-21T14:51:54;5.90;;;4.47;;
15536;SDS011;7870;52.448;13.270;2022-07-21T14:54:21;5.88;;;4.32;;
15536;SDS011;7870;52.448;13.270;2022-07-21T14:56:47;6.75;;;4.68;;
15536;SDS011;7870;52.448;13.270;2022-07-21T14:59:34;6.75;;;4.60;;
15536;SDS011;7870;52.448;13.270;2022-07-21T15:02:01;8.65;;;4.47;;
15536;SDS011;7870;52.448;13.270;2022-07-21T15:04:36;5.75;;;4.43;;
15536;SDS011;7870;52.448;13.270;2022-07-21T15:07:02;5.85;;;4.38;;
15536;SDS011;7870;52.448;13.270;2022-07-21T15:09:29;5.20;;;3.92;;
15536;SDS011;7870;52.448;13.270;2022-07-21T15:11:55;6.97;;;4.65;;